Terminal Aerodrome Forecast
Issued by NWS Caribou, ME

Home | Current Version | Previous Version | Text Only | Print | Product List | Glossary On
Versions: 1 2 3 4 5 6 7 8 9 10 11 12 13 14 15 16 17 18 19
000
FTUS41 KCAR 041724
TAFCAR
TAF
KCAR 041724Z 0418/0518 27014G23KT P6SM BKN035
     FM042200 25010G18KT P6SM BKN035
     FM050200 25008KT P6SM SCT040
     FM050900 29008KT P6SM FEW040 SCT100
     FM051500 30010G18KT P6SM FEW040=

USA.gov is the U.S. government's official web portal to all federal, state and local government web resources and services.